This is the latest recevied weather packets stored in our database for station/object W1REE. If no packets are shown the sender has not sent any weather packets the latest 10 day(s).
| Time | Temp. | Humidity | Pressure | Rain* | Wind** | Luminosity | Snow |
|---|---|---|---|---|---|---|---|
| 1777776554 | 12.22° C | 31% | 1021.2 hPa | 0 mm | - | 0 W/m² | - |
| 1777776251 | 12.22° C | 30% | 1021.4 hPa | 0 mm | - | 0 W/m² | - |
| 1777775948 | 12.78° C | 28% | 1021.3 hPa | 0 mm | - | 0 W/m² | - |
| 1777775645 | 12.78° C | 27% | 1021.3 hPa | 0 mm | - | 0 W/m² | - |
| 1777775342 | 12.78° C | 27% | 1021.1 hPa | 0 mm | - | 0 W/m² | - |
| 1777775042 | 12.78° C | 28% | 1021.3 hPa | 0 mm | - | 0 W/m² | - |
| 1777774738 | 12.78° C | 29% | 1021 hPa | 0 mm | - | 0 W/m² | - |
| 1777774435 | 12.78° C | 27% | 1021.2 hPa | 0 mm | - | 0 W/m² | - |
| 1777774132 | 12.78° C | 28% | 1021.2 hPa | 0 mm | - | 0 W/m² | - |
| 1777773223 | 13.33° C | 28% | 1021 hPa | 0 mm | - | 3 W/m² | - |
| 1777772617 | 13.89° C | 24% | 1020.8 hPa | 0 mm | - | 7 W/m² | - |
| 1777772314 | 13.89° C | 23% | 1020.7 hPa | 0 mm | - | 9 W/m² | - |
| 1777771406 | 15° C | 21% | 1020.8 hPa | 0 mm | - | 16 W/m² | - |
| 1777770496 | 16.11° C | 20% | 1020.6 hPa | 0 mm | - | 23 W/m² | - |
| 1777768678 | 17.78° C | 19% | 1020.8 hPa | 0 mm | - | 34 W/m² | - |
| 1777768375 | 17.78° C | 18% | 1020.8 hPa | 0 mm | - | 59 W/m² | - |
| 1777768072 | 17.78° C | 19% | 1020.7 hPa | 0 mm | - | 52 W/m² | - |
| 1777767465 | 18.33° C | 18% | 1020.8 hPa | 0 mm | - | 42 W/m² | - |
| 1777767161 | 18.33° C | 18% | 1021.1 hPa | 0 mm | - | 43 W/m² | - |
| 1777766859 | 18.33° C | 18% | 1021.1 hPa | 0 mm | - | 42 W/m² | - |
| 1777766253 | 19.44° C | 17% | 1021.1 hPa | 0 mm | - | 96 W/m² | - |
| 1777765951 | 19.44° C | 18% | 1020.8 hPa | 0 mm | - | 174 W/m² | - |
| 1777764737 | 20° C | 18% | 1021.2 hPa | 0 mm | - | 252 W/m² | - |
| 1777764433 | 20.56° C | 16% | 1021.2 hPa | 0 mm | - | 269 W/m² | - |
| 1777763827 | 18.89° C | 18% | 1021 hPa | 0 mm | - | 313 W/m² | - |
* Rain latest hour (hover to see other rain measurements)
** Current wind speed in m/s (hover to see current wind gust speed)